Terminal Aerodrome Forecast
Issued by NWS

Home | Current Version | Previous Version | Text Only | Print | Product List | Glossary On
Versions: 1 2 3 4 5 6 7 8 9 10 11 12 13 14 15 16 17 18 19 20 21 22 23 24 25 26 27
000
FTUS45 KBOU 142240 AAB
TAFBJC
TAF AMD
KBJC 142240Z 1423/1518 27014KT P6SM VCTS BKN080CB BKN140
      TEMPO 1423/1501 VRB18G30KT
     FM150100 24014KT P6SM SCT090 BKN140
     FM150300 27007KT P6SM FEW120 SCT220
     FM151400 33008KT P6SM SCT140 SCT200=

USA.gov is the U.S. government's official web portal to all federal, state and local government web resources and services.